createdAt,value
2023-09-08T00:03:22.858Z,4.30
2023-09-08T00:08:25.192Z,3.28
2023-09-08T00:13:26.603Z,3.72
2023-09-08T00:18:28.011Z,3.28
2023-09-08T00:23:29.396Z,3.83
2023-09-08T00:28:30.725Z,3.03
2023-09-08T00:33:32.168Z,3.55
2023-09-08T00:38:34.003Z,3.65
2023-09-08T00:43:35.570Z,3.22
2023-09-08T00:48:38.757Z,3.33
2023-09-08T00:58:41.824Z,3.70
2023-09-08T01:03:44.521Z,3.60
2023-09-08T01:08:46.375Z,2.95
2023-09-08T01:13:47.853Z,3.42
2023-09-08T01:18:50.591Z,4.00
2023-09-08T01:24:22.574Z,3.50
2023-09-08T01:29:26.611Z,4.10
2023-09-08T01:34:28.241Z,3.97
2023-09-08T01:39:29.670Z,3.80
2023-09-08T01:44:31.251Z,3.22
2023-09-08T01:49:32.609Z,3.40
2023-09-08T01:54:34.004Z,3.50
2023-09-08T01:59:35.769Z,3.40
2023-09-08T02:04:37.391Z,3.38
2023-09-08T02:09:39.041Z,2.95
2023-09-08T02:14:40.408Z,3.85
2023-09-08T02:19:41.975Z,3.47
2023-09-08T02:24:43.384Z,3.67
2023-09-08T02:29:47.072Z,3.55
2023-09-08T02:34:49.729Z,4.35
2023-09-08T02:39:51.113Z,3.23
2023-09-08T02:44:52.979Z,3.63
2023-09-08T02:49:54.303Z,3.50
2023-09-08T02:54:55.717Z,3.65
2023-09-08T02:59:57.603Z,3.25
2023-09-08T03:04:59.091Z,4.47
2023-09-08T03:10:00.705Z,3.92
2023-09-08T03:15:05.382Z,3.55
2023-09-08T03:20:08.769Z,3.20
2023-09-08T03:25:10.306Z,2.97
2023-09-08T03:30:12.048Z,3.60
2023-09-08T03:35:13.386Z,3.90
2023-09-08T03:40:14.950Z,3.60
2023-09-08T03:45:16.597Z,3.95
2023-09-08T03:50:18.021Z,3.38
2023-09-08T03:55:19.909Z,3.72
2023-09-08T04:00:23.205Z,3.38
2023-09-08T04:05:24.725Z,5.00
2023-09-08T04:10:26.529Z,4.32
2023-09-08T04:15:28.038Z,3.83
2023-09-08T04:20:29.395Z,3.75
2023-09-08T04:25:30.698Z,4.30
2023-09-08T04:30:32.119Z,4.10
2023-09-08T04:35:33.606Z,4.20
2023-09-08T04:40:34.955Z,4.50
2023-09-08T04:45:36.320Z,3.72
2023-09-08T04:50:37.691Z,4.15
2023-09-08T04:55:39.012Z,3.97
2023-09-08T05:00:43.547Z,3.72
2023-09-08T05:05:46.028Z,4.40
2023-09-08T05:10:47.477Z,4.67
2023-09-08T05:15:49.763Z,4.03
2023-09-08T05:20:51.283Z,4.13
2023-09-08T05:25:52.601Z,3.85
2023-09-08T05:30:54.893Z,3.78
2023-09-08T05:35:56.977Z,3.28
2023-09-08T05:40:58.453Z,3.40
2023-09-08T05:45:59.935Z,3.40
2023-09-08T05:51:03.264Z,3.80
2023-09-08T05:56:04.866Z,3.42
2023-09-08T06:01:06.287Z,4.22
2023-09-08T06:06:07.706Z,4.35
2023-09-08T06:11:09.128Z,4.82
2023-09-08T06:16:10.586Z,4.22
2023-09-08T06:21:12.010Z,6.13
2023-09-08T06:26:13.395Z,4.90
2023-09-08T06:31:15.795Z,4.15
2023-09-08T06:36:17.396Z,4.50
2023-09-08T06:41:19.024Z,4.35
2023-09-08T06:46:20.442Z,4.63
2023-09-08T06:51:21.836Z,4.47
2023-09-08T06:56:23.537Z,4.25
2023-09-08T07:01:25.807Z,4.38
2023-09-08T07:06:27.221Z,4.60
2023-09-08T07:11:28.748Z,4.05
2023-09-08T07:16:39.654Z,4.05
2023-09-08T07:21:41.490Z,3.88
2023-09-08T07:26:43.902Z,3.97
2023-09-08T07:31:45.700Z,4.45
2023-09-08T07:36:47.135Z,3.65
2023-09-08T07:41:48.555Z,3.35
2023-09-08T07:46:52.399Z,4.05
2023-09-08T07:51:54.381Z,3.75
2023-09-08T07:56:55.850Z,3.72
2023-09-08T08:01:57.273Z,3.83
2023-09-08T08:06:59.021Z,4.10
2023-09-08T08:12:00.865Z,4.03
2023-09-08T08:17:02.419Z,4.15
2023-09-08T08:22:04.654Z,3.60
2023-09-08T08:27:06.118Z,3.85
2023-09-08T08:32:08.621Z,3.58
2023-09-08T08:37:12.545Z,3.90
2023-09-08T08:42:16.056Z,4.68
2023-09-08T08:47:20.435Z,3.95
2023-09-08T08:52:22.601Z,4.13
2023-09-08T08:57:24.458Z,4.60
2023-09-08T09:02:26.907Z,3.87
2023-09-08T09:07:28.703Z,4.53
2023-09-08T09:12:30.674Z,4.13
2023-09-08T09:17:36.363Z,3.73
2023-09-08T09:22:38.494Z,4.07
2023-09-08T09:27:42.160Z,3.75
2023-09-08T09:32:44.267Z,3.60
2023-09-08T09:37:48.725Z,4.00
2023-09-08T09:42:52.430Z,3.90
2023-09-08T09:47:53.946Z,3.63
2023-09-08T09:52:59.690Z,3.30
2023-09-08T09:58:05.349Z,3.40
2023-09-08T10:03:07.467Z,3.53
2023-09-08T10:08:09.382Z,3.85
2023-09-08T10:13:13.906Z,3.90
2023-09-08T10:18:20.661Z,3.28
2023-09-08T10:23:37.516Z,3.90
2023-09-08T10:28:40.750Z,3.78
2023-09-08T10:33:44.352Z,3.50
2023-09-08T10:38:48.732Z,3.95
2023-09-08T10:43:58.389Z,4.40
2023-09-08T10:49:09.011Z,3.67
2023-09-08T10:54:11.291Z,3.45
2023-09-08T10:59:13.132Z,4.13
2023-09-08T11:04:20.195Z,3.40
2023-09-08T11:09:22.413Z,3.35
2023-09-08T11:19:25.871Z,3.13
2023-09-08T11:24:27.823Z,3.92
2023-09-08T11:29:30.186Z,3.55
2023-09-08T11:34:31.537Z,2.95
2023-09-08T11:39:37.378Z,3.20
2023-09-08T11:44:39.334Z,3.13
2023-09-08T11:49:42.159Z,3.42
2023-09-08T11:55:00.133Z,2.85
2023-09-08T12:00:06.835Z,2.88
2023-09-08T12:05:22.827Z,3.20
2023-09-08T12:10:26.324Z,2.97
2023-09-08T12:15:35.779Z,3.75
2023-09-08T12:20:41.265Z,3.45
2023-09-08T12:26:08.693Z,2.90
2023-09-08T12:31:14.890Z,3.25
2023-09-08T12:36:18.344Z,2.75
2023-09-08T12:41:20.786Z,3.20
2023-09-08T12:46:23.115Z,2.95
2023-09-08T12:51:25.430Z,3.67
2023-09-08T12:56:26.972Z,3.30
2023-09-08T13:01:29.812Z,2.80
2023-09-08T13:06:34.022Z,3.17
2023-09-08T13:11:35.468Z,2.60
2023-09-08T13:16:37.249Z,3.20
2023-09-08T13:21:38.911Z,2.72
2023-09-08T13:26:41.868Z,3.38
2023-09-08T13:31:43.778Z,2.60
2023-09-08T13:36:45.222Z,2.88
2023-09-08T13:41:57.698Z,2.60
2023-09-08T13:46:59.520Z,2.70
2023-09-08T13:52:02.545Z,3.00
2023-09-08T13:57:08.707Z,2.42
2023-09-08T14:02:37.940Z,2.70
2023-09-08T14:12:36.389Z,2.97
2023-09-08T14:17:37.926Z,2.33
2023-09-08T14:27:41.265Z,2.60
2023-09-08T14:32:42.898Z,2.67
2023-09-08T14:37:44.633Z,2.80
2023-09-08T14:42:46.282Z,2.67
2023-09-08T14:47:47.823Z,2.90
2023-09-08T14:52:51.432Z,2.70
2023-09-08T14:57:52.919Z,3.00
2023-09-08T15:02:54.967Z,2.95
2023-09-08T15:07:56.353Z,3.15
2023-09-08T15:12:57.788Z,3.27
2023-09-08T15:17:59.931Z,3.17
2023-09-08T15:23:01.525Z,2.60
2023-09-08T15:28:03.070Z,2.53
2023-09-08T15:33:07.309Z,2.72
2023-09-08T15:38:08.929Z,2.90
2023-09-08T15:43:10.503Z,3.20
2023-09-08T15:48:13.751Z,2.65
2023-09-08T15:53:15.430Z,3.15
2023-09-08T15:58:17.021Z,3.67
2023-09-08T16:03:18.659Z,3.38
2023-09-08T16:08:21.002Z,2.80
2023-09-08T16:13:23.744Z,3.20
2023-09-08T16:18:26.195Z,3.10
2023-09-08T16:23:28.038Z,3.70
2023-09-08T16:28:29.638Z,3.28
2023-09-08T16:33:31.347Z,2.92
2023-09-08T16:38:35.853Z,2.90
2023-09-08T16:43:37.458Z,3.47
2023-09-08T16:48:39.047Z,3.25
2023-09-08T16:53:40.501Z,3.20
2023-09-08T16:58:42.108Z,3.80
2023-09-08T17:03:43.708Z,3.55
2023-09-08T17:08:45.333Z,3.33
2023-09-08T17:13:46.722Z,3.53
2023-09-08T17:18:48.303Z,2.87
2023-09-08T17:23:50.019Z,3.88
2023-09-08T17:28:51.922Z,3.33
2023-09-08T17:33:53.969Z,3.75
2023-09-08T17:38:55.892Z,4.45
2023-09-08T17:43:58.381Z,4.47
2023-09-08T17:48:59.770Z,5.45
2023-09-08T17:54:01.160Z,5.05
2023-09-08T17:59:02.631Z,4.65
2023-09-08T18:04:04.354Z,4.73
2023-09-08T18:09:05.991Z,4.60
2023-09-08T18:14:07.716Z,5.43
2023-09-08T18:19:09.363Z,4.30
2023-09-08T18:24:10.816Z,4.40
2023-09-08T18:29:12.607Z,4.25
2023-09-08T18:34:14.287Z,3.70
2023-09-08T18:39:16.372Z,3.57
2023-09-08T18:44:17.862Z,3.30
2023-09-08T18:49:22.980Z,4.15
2023-09-08T18:54:29.342Z,3.90
2023-09-08T18:59:30.936Z,3.97
2023-09-08T19:04:32.823Z,3.33
2023-09-08T19:09:34.543Z,3.92
2023-09-08T19:14:36.076Z,3.70
2023-09-08T19:19:37.538Z,4.38
2023-09-08T19:24:42.859Z,4.60
2023-09-08T19:29:49.044Z,4.60
2023-09-08T19:34:51.291Z,4.10
2023-09-08T19:39:52.816Z,4.95
2023-09-08T19:44:54.282Z,4.95
2023-09-08T19:49:56.087Z,4.53
2023-09-08T19:54:57.643Z,5.25
2023-09-08T19:59:59.022Z,4.80
2023-09-08T20:05:00.491Z,5.15
2023-09-08T20:10:02.174Z,4.55
2023-09-08T20:15:03.831Z,5.88
2023-09-08T20:20:06.121Z,5.50
2023-09-08T20:25:08.449Z,6.20
2023-09-08T20:30:10.467Z,5.53
2023-09-08T20:35:12.032Z,5.70
2023-09-08T20:40:13.479Z,4.70
2023-09-08T20:45:14.935Z,4.57
2023-09-08T20:50:16.741Z,4.00
2023-09-08T20:55:18.166Z,4.88
2023-09-08T21:00:19.897Z,4.43
2023-09-08T21:05:21.479Z,4.07
2023-09-08T21:10:22.973Z,4.18
2023-09-08T21:15:24.588Z,4.45
2023-09-08T21:20:26.181Z,4.40
2023-09-08T21:25:27.650Z,4.68
2023-09-08T21:30:29.257Z,4.38
2023-09-08T21:35:32.099Z,4.30
2023-09-08T21:45:34.890Z,3.90
2023-09-08T21:50:36.323Z,4.07
2023-09-08T21:55:37.669Z,4.07
2023-09-08T22:00:39.102Z,4.15
2023-09-08T22:05:44.133Z,3.95
2023-09-08T22:10:45.593Z,4.60
2023-09-08T22:15:47.065Z,4.25
2023-09-08T22:20:55.095Z,5.03
2023-09-08T22:25:56.741Z,4.43
2023-09-08T22:30:58.255Z,4.20
2023-09-08T22:35:59.877Z,4.60
2023-09-08T22:41:02.150Z,4.90
2023-09-08T22:46:04.283Z,5.20
2023-09-08T22:51:05.693Z,4.20
2023-09-08T22:56:08.246Z,4.30
2023-09-08T23:06:13.558Z,4.18
2023-09-08T23:11:15.348Z,4.68
2023-09-08T23:16:17.048Z,4.30
2023-09-08T23:21:18.530Z,4.10
2023-09-08T23:26:20.077Z,4.18
2023-09-08T23:31:22.356Z,4.28
2023-09-08T23:36:25.233Z,4.73
2023-09-08T23:46:28.673Z,5.07
2023-09-08T23:51:30.402Z,3.88
2023-09-08T23:56:34.017Z,4.65
